Nearby METAR Reports

METAR is the scheduled surface weather observation taken hourly at civil and military airport locations.

METAR is an acronym from the French language and roughly translates as Aviation Routine Weather Report.

 

EGPL - Benbecula Island, United Kingdom
Distance from station: WNW 41mi, 66km
Updated: 01/03/2021 00:50
Few Clouds
Few Clouds
 Wind from S
Wind: S 7 mph , 11 km/h
Temperature: 6°C
Wind Chill: 4°C
Dew Point: 5°C
Humidity: 93%
Barometer: 1034 hPa
Clouds: Few Clouds
Visibility: 6 miles , 10 km
Cloud details: Few Clouds 457 m
2021/03/01 00:50 EGPL 010050Z 18006KT 9999 FEW015 06/05 Q1034
EGPU - Tiree Island, United Kingdom
Distance from station: SSW 56mi, 90km
Updated: 01/03/2021 00:20
Overcast
Overcast
 Wind from S
Wind: S 8 mph , 13 km/h
Temperature: 7°C
Wind Chill: 5°C
Dew Point: 6°C
Humidity: 93%
Barometer: 1035 hPa
Clouds: Overcast
Visibility: 4 miles , 7 km
Cloud details: Overcast 1097 m
2021/03/01 00:20 EGPU 010020Z AUTO 17007KT 7000 OVC036/// 07/06 Q1035
 
EGEO - Oban Airport, United Kingdom
Distance from station: SE 65mi, 105km
Updated: 25/02/2021 13:20
NOT Current
Mostly cloudy
Mostly cloudy
 Wind from WSW
Wind: WSW 12 mph , 19 km/h
Temperature: 8°C
Wind Chill: 4°C
Dew Point: 5°C
Humidity: 82%
Barometer: 1021 hPa
Clouds: Mostly cloudy
Visibility: 6 miles , 10 km
Cloud details: Few Clouds 579 m
Mostly cloudy 853 m
2021/02/25 13:20 EGEO 251320Z 24010KT 9999 FEW019 BKN028 08/05 Q1021
EGPO - Stornoway, United Kingdom
Distance from station: 0 66mi, 106km
Updated: 01/03/2021 00:50
Overcast
Overcast
 Wind from S
Wind: S 15 mph , 24 km/h
Temperature: 8°C
Wind Chill: 4°C
Dew Point: 6°C
Humidity: 87%
Barometer: 1033 hPa
Clouds: Overcast
Visibility: 6 miles , 10 km
Cloud details: Overcast 823 m
2021/03/01 00:50 EGPO 010050Z AUTO 19013KT 9999 OVC027/// 08/06 Q1033
 
EGPE - Inverness/Dalcro, United Kingdom
Distance from station: ENE 88mi, 141km
Updated: 01/03/2021 00:50
Overcast
Overcast
 Wind from SW
Wind: SW 5 mph , 7 km/h
Temperature: 7°C
Wind Chill: 6°C
Dew Point: 4°C
Humidity: 81%
Barometer: 1035 hPa
Clouds: Overcast
Visibility: 6 miles , 10 km
Cloud details: Overcast 1097 m
2021/03/01 00:50 EGPE 010050Z AUTO 22004KT 9999 OVC036/// 07/04 Q1035
EGQA - Tain Range (saws, United Kingdom
Distance from station: ENE 97mi, 156km
Updated: 26/02/2021 10:50
NOT Current
Few Clouds
Few Clouds
 Wind from SSW
Wind: SSW 13 mph , 20 km/h
Clouds: Few Clouds
Visibility: 6 miles , 10 km
Cloud details: Few Clouds 732 m
2021/02/26 10:50 EGQA 261050Z 20011KT 9999 FEW024 10/// Q1030 RMK BLU
 
EGQK - Kinloss Raf, United Kingdom
Distance from station: ENE 107mi, 171km
Updated: 28/02/2021 23:50
Overcast
Overcast
 Wind from SW
Wind: SW 3 mph , 6 km/h
Temperature: 7°C
Dew Point: 4°C
Humidity: 81%
Barometer: 1035 hPa
Clouds: Overcast
Visibility: 6 miles , 10 km
Cloud details: Overcast 1189 m
2021/02/28 23:50 EGQK 282350Z AUTO 22003KT 9999 OVC039/// 07/04 Q1035
EGPI - Islay/Port Ellen, United Kingdom
Distance from station: S 110mi, 177km
Updated: 01/03/2021 00:20
Few Clouds
Few Clouds
 Wind from ESE
Wind: ESE 7 mph , 11 km/h
Temperature: 4°C
Wind Chill: 1°C
Dew Point: 3°C
Humidity: 93%
Barometer: 1035 hPa
Clouds: Few Clouds
Visibility: 6 miles , 10 km
Cloud details: Few Clouds 1158 m
2021/03/01 00:20 EGPI 010020Z AUTO 11006KT 9999 FEW038/// 04/03 Q1035
 
EGQS - Lossiemouth Raf, United Kingdom
Distance from station: ENE 117mi, 188km
Updated: 01/03/2021 00:50
Mostly cloudy
Mostly cloudy
 Wind from SSW
Wind: SSW 5 mph , 7 km/h
Temperature: 6°C
Wind Chill: 4°C
Dew Point: 3°C
Humidity: 81%
Barometer: 1035 hPa
Clouds: Mostly cloudy
Visibility: 6 miles , 10 km
Cloud details: Mostly cloudy 1158 m
2021/03/01 00:50 EGQS 010050Z 21004KT 9999 BKN038 06/03 Q1035 RMK BLU
EGPF - Glasgow Airport, United Kingdom
Distance from station: SE 121mi, 195km
Updated: 01/03/2021 00:50
Mist, Mostly cloudy
Mist, Mostly cloudy
 Wind from WSW
Wind: WSW 5 mph , 7 km/h
Temperature: 4°C
Wind Chill: 2°C
Dew Point: 4°C
Humidity: 100%
Barometer: 1036 hPa
Summary: Mist
Clouds: Mostly cloudy
Visibility: 2 miles , 3 km
Cloud details: Partly cloudy 274 m
Mostly cloudy 1219 m
2021/03/01 00:50 EGPF 010050Z AUTO 25004KT 2900 BR SCT009 BKN040 04/04 Q1036
 
EGEC - Campbeltown, United Kingdom
Distance from station: SSE 129mi, 207km
Updated: 26/02/2021 09:20
NOT Current
Clear
Clear
 Wind from ESE
Wind: ESE 10 mph , 17 km/h
Temperature: 7°C
Wind Chill: 4°C
Dew Point: 5°C
Humidity: 87%
Barometer: 1033 hPa
Summary: Clear
Visibility: greater than 7 miles , 10 km
2021/02/26 09:20 EGEC 260920Z 12009KT CAVOK 07/05 Q1033
EGPN - Dundee/Riverside, United Kingdom
Distance from station: ESE 137mi, 221km
Updated: 28/02/2021 15:50
NOT Current
Partly cloudy
Partly cloudy
 Wind from W
Wind: W 6 mph , 9 km/h
Temperature: 8°C
Wind Chill: 6°C
Dew Point: 6°C
Humidity: 87%
Barometer: 1035 hPa
Clouds: Partly cloudy
Visibility: 6 miles , 10 km
Cloud details: Few Clouds 762 m
Partly cloudy 1219 m
2021/02/28 15:50 EGPN 281550Z 26005KT 9999 FEW025 SCT040 08/06 Q1035
 
EGPK - Prestwick(Civ/Na, United Kingdom
Distance from station: SSE 139mi, 224km
Updated: 01/03/2021 00:50
Clear
Clear
 Wind from varies
Wind: varies 1 mph , 2 km/h
Temperature: 1°C
Dew Point: 1°C
Humidity: 100%
Barometer: 1035 hPa
Summary: Clear
Visibility: greater than 7 miles , 10 km
2021/03/01 00:50 EGPK 010050Z VRB01KT CAVOK 01/01 Q1035
EGQL - Leuchars Raf, United Kingdom
Distance from station: ESE 145mi, 233km
Updated: 01/03/2021 00:50
Mostly cloudy
Mostly cloudy
 Wind from W
Wind: W 7 mph , 11 km/h
Temperature: 7°C
Wind Chill: 5°C
Dew Point: 5°C
Humidity: 87%
Barometer: 1035 hPa
Clouds: Mostly cloudy
Visibility: 6 miles , 10 km
Cloud details: Mostly cloudy 1280 m
2021/03/01 00:50 EGQL 010050Z 27006KT 9999 BKN042 07/05 Q1035 BLU
 
EGPH - Edinburgh Airpor, United Kingdom
Distance from station: SE 145mi, 234km
Updated: 01/03/2021 00:50
Overcast
Overcast
 Wind from SW
Wind: SW 5 mph , 7 km/h
Temperature: 5°C
Wind Chill: 3°C
Dew Point: 4°C
Humidity: 93%
Barometer: 1035 hPa
Clouds: Overcast
Visibility: 6 miles , 10 km
Cloud details: Overcast 1219 m
2021/03/01 00:50 EGPH 010050Z 22004KT 9999 OVC040 05/04 Q1035
EGPC - Wick, United Kingdom
Distance from station: NE 146mi, 234km
Updated: 01/03/2021 00:50
Few Clouds
Few Clouds
 Wind from W
Wind: W 3 mph , 6 km/h
Temperature: 5°C
Dew Point: 3°C
Humidity: 87%
Barometer: 1034 hPa
Clouds: Few Clouds
Visibility: 6 miles , 10 km
Cloud details: Few Clouds 1280 m
2021/03/01 00:50 EGPC 010050Z AUTO 26003KT 9999 FEW042/// 05/03 Q1034

-

free counters
QR Code Twitter Scottish Weather Network UK Weather Network
Argyll House B & B

Argyll House B & B is situated in North West Skye and is the perfect base to see all that the Isle of Skye has to offer. Bookings are been taken for 2021